sensor_id;sensor_type;location;lat;lon;timestamp;P1;durP1;ratioP1;P2;durP2;ratioP2
19780;SDS011;10050;55.492;13.506;2023-01-04T00:00:59;8.97;;;2.30;;
19780;SDS011;10050;55.492;13.506;2023-01-04T00:03:25;6.30;;;2.20;;
19780;SDS011;10050;55.492;13.506;2023-01-04T00:05:51;3.13;;;2.00;;
19780;SDS011;10050;55.492;13.506;2023-01-04T00:08:17;3.27;;;2.00;;
19780;SDS011;10050;55.492;13.506;2023-01-04T00:10:43;9.47;;;2.50;;
19780;SDS011;10050;55.492;13.506;2023-01-04T00:13:08;5.97;;;1.90;;
19780;SDS011;10050;55.492;13.506;2023-01-04T00:15:34;8.90;;;2.60;;
19780;SDS011;10050;55.492;13.506;2023-01-04T00:17:59;7.70;;;2.10;;
19780;SDS011;10050;55.492;13.506;2023-01-04T00:20:25;3.50;;;2.30;;
19780;SDS011;10050;55.492;13.506;2023-01-04T00:22:51;6.40;;;2.30;;
19780;SDS011;10050;55.492;13.506;2023-01-04T00:25:16;2.80;;;2.53;;
19780;SDS011;10050;55.492;13.506;2023-01-04T00:27:42;5.87;;;2.60;;
19780;SDS011;10050;55.492;13.506;2023-01-04T00:30:08;7.57;;;2.87;;
19780;SDS011;10050;55.492;13.506;2023-01-04T00:32:34;5.37;;;2.80;;
19780;SDS011;10050;55.492;13.506;2023-01-04T00:34:59;5.10;;;3.07;;
19780;SDS011;10050;55.492;13.506;2023-01-04T00:37:25;8.53;;;3.60;;
19780;SDS011;10050;55.492;13.506;2023-01-04T00:39:50;7.50;;;3.47;;
19780;SDS011;10050;55.492;13.506;2023-01-04T00:42:16;8.00;;;3.30;;
19780;SDS011;10050;55.492;13.506;2023-01-04T00:44:42;4.97;;;2.90;;
19780;SDS011;10050;55.492;13.506;2023-01-04T00:47:07;6.97;;;3.33;;
19780;SDS011;10050;55.492;13.506;2023-01-04T00:49:33;8.53;;;3.30;;
19780;SDS011;10050;55.492;13.506;2023-01-04T00:51:59;5.90;;;3.40;;
19780;SDS011;10050;55.492;13.506;2023-01-04T00:54:24;5.43;;;3.40;;
19780;SDS011;10050;55.492;13.506;2023-01-04T00:56:50;5.30;;;3.60;;
19780;SDS011;10050;55.492;13.506;2023-01-04T00:59:17;8.60;;;3.93;;
19780;SDS011;10050;55.492;13.506;2023-01-04T01:01:44;9.47;;;3.50;;
19780;SDS011;10050;55.492;13.506;2023-01-04T01:04:13;5.67;;;3.40;;
19780;SDS011;10050;55.492;13.506;2023-01-04T01:06:40;4.73;;;3.17;;
19780;SDS011;10050;55.492;13.506;2023-01-04T01:09:05;6.13;;;3.57;;
19780;SDS011;10050;55.492;13.506;2023-01-04T01:11:32;4.20;;;3.37;;
19780;SDS011;10050;55.492;13.506;2023-01-04T01:14:00;6.80;;;3.00;;
19780;SDS011;10050;55.492;13.506;2023-01-04T01:16:26;7.13;;;3.10;;
19780;SDS011;10050;55.492;13.506;2023-01-04T01:18:52;8.13;;;3.50;;
19780;SDS011;10050;55.492;13.506;2023-01-04T01:21:19;4.97;;;3.40;;
19780;SDS011;10050;55.492;13.506;2023-01-04T01:23:51;6.40;;;4.10;;
19780;SDS011;10050;55.492;13.506;2023-01-04T01:26:19;8.40;;;3.30;;
19780;SDS011;10050;55.492;13.506;2023-01-04T01:28:46;6.77;;;3.30;;
19780;SDS011;10050;55.492;13.506;2023-01-04T01:31:13;6.83;;;3.10;;
19780;SDS011;10050;55.492;13.506;2023-01-04T01:33:42;8.43;;;4.23;;
19780;SDS011;10050;55.492;13.506;2023-01-04T01:36:09;7.70;;;3.67;;
19780;SDS011;10050;55.492;13.506;2023-01-04T01:38:36;10.40;;;4.60;;
19780;SDS011;10050;55.492;13.506;2023-01-04T01:41:02;11.33;;;4.87;;
19780;SDS011;10050;55.492;13.506;2023-01-04T01:46:17;8.60;;;5.33;;
19780;SDS011;10050;55.492;13.506;2023-01-04T01:48:47;8.90;;;4.40;;
19780;SDS011;10050;55.492;13.506;2023-01-04T01:51:15;7.17;;;4.93;;
19780;SDS011;10050;55.492;13.506;2023-01-04T01:53:42;8.63;;;5.60;;
19780;SDS011;10050;55.492;13.506;2023-01-04T01:56:14;10.93;;;5.63;;
19780;SDS011;10050;55.492;13.506;2023-01-04T01:58:46;12.27;;;5.17;;
19780;SDS011;10050;55.492;13.506;2023-01-04T02:01:16;10.43;;;6.27;;
19780;SDS011;10050;55.492;13.506;2023-01-04T02:03:42;9.53;;;5.77;;
19780;SDS011;10050;55.492;13.506;2023-01-04T02:06:12;11.47;;;6.07;;
19780;SDS011;10050;55.492;13.506;2023-01-04T02:08:42;10.73;;;6.03;;
19780;SDS011;10050;55.492;13.506;2023-01-04T02:11:09;14.53;;;7.00;;
19780;SDS011;10050;55.492;13.506;2023-01-04T02:13:35;16.93;;;7.17;;
19780;SDS011;10050;55.492;13.506;2023-01-04T02:19:20;11.13;;;7.10;;
19780;SDS011;10050;55.492;13.506;2023-01-04T02:46:43;16.83;;;8.63;;
19780;SDS011;10050;55.492;13.506;2023-01-04T02:49:14;18.40;;;9.00;;
19780;SDS011;10050;55.492;13.506;2023-01-04T02:51:58;16.20;;;8.20;;
19780;SDS011;10050;55.492;13.506;2023-01-04T02:54:24;15.73;;;8.97;;
19780;SDS011;10050;55.492;13.506;2023-01-04T02:57:03;14.27;;;9.27;;
19780;SDS011;10050;55.492;13.506;2023-01-04T03:11:28;19.80;;;9.97;;
19780;SDS011;10050;55.492;13.506;2023-01-04T03:14:19;19.57;;;9.77;;
19780;SDS011;10050;55.492;13.506;2023-01-04T03:16:49;17.97;;;10.10;;
19780;SDS011;10050;55.492;13.506;2023-01-04T03:19:16;20.53;;;10.70;;
19780;SDS011;10050;55.492;13.506;2023-01-04T03:22:03;17.70;;;9.73;;
19780;SDS011;10050;55.492;13.506;2023-01-04T03:24:30;28.83;;;9.70;;
19780;SDS011;10050;55.492;13.506;2023-01-04T03:27:35;16.87;;;9.67;;
19780;SDS011;10050;55.492;13.506;2023-01-04T03:30:20;19.70;;;10.20;;
19780;SDS011;10050;55.492;13.506;2023-01-04T03:33:06;20.23;;;9.67;;
19780;SDS011;10050;55.492;13.506;2023-01-04T03:38:38;25.10;;;10.60;;
19780;SDS011;10050;55.492;13.506;2023-01-04T03:41:43;20.00;;;10.90;;
19780;SDS011;10050;55.492;13.506;2023-01-04T03:47:29;22.27;;;11.17;;
19780;SDS011;10050;55.492;13.506;2023-01-04T03:50:21;21.87;;;11.37;;
19780;SDS011;10050;55.492;13.506;2023-01-04T03:52:51;22.77;;;11.40;;
19780;SDS011;10050;55.492;13.506;2023-01-04T03:55:19;18.30;;;10.93;;
19780;SDS011;10050;55.492;13.506;2023-01-04T03:57:46;22.13;;;11.77;;
19780;SDS011;10050;55.492;13.506;2023-01-04T04:00:14;21.53;;;11.33;;
19780;SDS011;10050;55.492;13.506;2023-01-04T04:02:43;23.20;;;12.03;;
19780;SDS011;10050;55.492;13.506;2023-01-04T04:05:16;19.17;;;10.87;;
19780;SDS011;10050;55.492;13.506;2023-01-04T04:08:01;16.50;;;11.03;;
19780;SDS011;10050;55.492;13.506;2023-01-04T04:10:46;19.50;;;11.00;;
19780;SDS011;10050;55.492;13.506;2023-01-04T04:13:11;22.97;;;11.50;;
19780;SDS011;10050;55.492;13.506;2023-01-04T04:15:37;22.80;;;11.07;;
19780;SDS011;10050;55.492;13.506;2023-01-04T04:18:03;22.67;;;12.13;;
19780;SDS011;10050;55.492;13.506;2023-01-04T04:20:29;23.20;;;12.07;;
19780;SDS011;10050;55.492;13.506;2023-01-04T04:22:55;23.23;;;10.83;;
19780;SDS011;10050;55.492;13.506;2023-01-04T04:25:20;20.80;;;11.60;;
19780;SDS011;10050;55.492;13.506;2023-01-04T04:27:46;24.43;;;11.10;;
19780;SDS011;10050;55.492;13.506;2023-01-04T04:30:12;25.30;;;11.83;;
19780;SDS011;10050;55.492;13.506;2023-01-04T04:32:37;20.63;;;10.93;;
19780;SDS011;10050;55.492;13.506;2023-01-04T04:35:03;23.37;;;11.07;;
19780;SDS011;10050;55.492;13.506;2023-01-04T04:37:29;23.47;;;11.97;;
19780;SDS011;10050;55.492;13.506;2023-01-04T04:39:56;25.17;;;11.67;;
19780;SDS011;10050;55.492;13.506;2023-01-04T04:42:22;22.23;;;11.50;;
19780;SDS011;10050;55.492;13.506;2023-01-04T04:44:48;23.67;;;11.33;;
19780;SDS011;10050;55.492;13.506;2023-01-04T04:47:13;23.57;;;11.37;;
19780;SDS011;10050;55.492;13.506;2023-01-04T04:49:39;22.67;;;12.27;;
19780;SDS011;10050;55.492;13.506;2023-01-04T04:52:05;22.93;;;11.23;;
19780;SDS011;10050;55.492;13.506;2023-01-04T04:54:30;25.23;;;11.70;;
19780;SDS011;10050;55.492;13.506;2023-01-04T04:56:56;24.23;;;11.53;;
19780;SDS011;10050;55.492;13.506;2023-01-04T04:59:22;26.87;;;11.97;;
19780;SDS011;10050;55.492;13.506;2023-01-04T05:01:47;25.03;;;10.87;;
19780;SDS011;10050;55.492;13.506;2023-01-04T05:04:13;22.87;;;11.93;;
19780;SDS011;10050;55.492;13.506;2023-01-04T05:06:41;21.57;;;12.00;;
19780;SDS011;10050;55.492;13.506;2023-01-04T05:09:07;22.13;;;10.97;;
19780;SDS011;10050;55.492;13.506;2023-01-04T05:11:34;26.47;;;11.20;;
19780;SDS011;10050;55.492;13.506;2023-01-04T05:14:18;24.73;;;12.33;;
19780;SDS011;10050;55.492;13.506;2023-01-04T05:16:44;22.20;;;11.00;;
19780;SDS011;10050;55.492;13.506;2023-01-04T05:19:09;23.03;;;12.20;;
19780;SDS011;10050;55.492;13.506;2023-01-04T05:21:35;26.83;;;12.80;;
19780;SDS011;10050;55.492;13.506;2023-01-04T05:24:00;24.40;;;12.27;;
19780;SDS011;10050;55.492;13.506;2023-01-04T05:26:26;26.03;;;11.90;;
19780;SDS011;10050;55.492;13.506;2023-01-04T05:28:52;25.97;;;12.63;;
19780;SDS011;10050;55.492;13.506;2023-01-04T05:31:17;25.80;;;11.13;;
19780;SDS011;10050;55.492;13.506;2023-01-04T05:33:43;24.47;;;11.13;;
19780;SDS011;10050;55.492;13.506;2023-01-04T05:36:09;17.97;;;11.37;;
19780;SDS011;10050;55.492;13.506;2023-01-04T05:38:34;24.47;;;11.40;;
19780;SDS011;10050;55.492;13.506;2023-01-04T05:41:00;19.80;;;11.80;;
19780;SDS011;10050;55.492;13.506;2023-01-04T05:43:26;23.70;;;10.93;;
19780;SDS011;10050;55.492;13.506;2023-01-04T05:45:52;19.60;;;11.53;;
19780;SDS011;10050;55.492;13.506;2023-01-04T05:48:20;20.93;;;11.70;;
19780;SDS011;10050;55.492;13.506;2023-01-04T05:50:47;24.57;;;11.77;;
19780;SDS011;10050;55.492;13.506;2023-01-04T05:53:13;24.67;;;10.50;;
19780;SDS011;10050;55.492;13.506;2023-01-04T05:55:44;27.50;;;12.00;;
19780;SDS011;10050;55.492;13.506;2023-01-04T05:58:11;22.17;;;11.30;;
19780;SDS011;10050;55.492;13.506;2023-01-04T06:00:37;23.17;;;12.13;;
19780;SDS011;10050;55.492;13.506;2023-01-04T06:03:02;26.63;;;12.40;;
19780;SDS011;10050;55.492;13.506;2023-01-04T06:05:28;21.40;;;12.20;;
19780;SDS011;10050;55.492;13.506;2023-01-04T06:07:54;20.43;;;11.30;;
19780;SDS011;10050;55.492;13.506;2023-01-04T06:10:19;23.73;;;12.10;;
19780;SDS011;10050;55.492;13.506;2023-01-04T06:12:46;22.23;;;11.60;;
19780;SDS011;10050;55.492;13.506;2023-01-04T06:15:12;22.77;;;11.70;;
19780;SDS011;10050;55.492;13.506;2023-01-04T06:17:38;20.60;;;10.87;;
19780;SDS011;10050;55.492;13.506;2023-01-04T06:20:05;18.20;;;10.70;;
19780;SDS011;10050;55.492;13.506;2023-01-04T06:22:33;23.10;;;11.73;;
19780;SDS011;10050;55.492;13.506;2023-01-04T06:24:59;22.97;;;10.87;;
19780;SDS011;10050;55.492;13.506;2023-01-04T06:27:25;25.43;;;11.77;;
19780;SDS011;10050;55.492;13.506;2023-01-04T06:29:51;20.33;;;10.80;;
19780;SDS011;10050;55.492;13.506;2023-01-04T06:32:17;19.70;;;11.33;;
19780;SDS011;10050;55.492;13.506;2023-01-04T06:34:42;24.50;;;11.70;;
19780;SDS011;10050;55.492;13.506;2023-01-04T06:37:08;22.03;;;11.27;;
19780;SDS011;10050;55.492;13.506;2023-01-04T06:39:34;20.23;;;11.10;;
19780;SDS011;10050;55.492;13.506;2023-01-04T06:42:01;22.63;;;11.10;;
19780;SDS011;10050;55.492;13.506;2023-01-04T06:44:27;24.43;;;10.67;;
19780;SDS011;10050;55.492;13.506;2023-01-04T06:46:52;26.90;;;12.50;;
19780;SDS011;10050;55.492;13.506;2023-01-04T06:49:18;26.80;;;11.37;;
19780;SDS011;10050;55.492;13.506;2023-01-04T06:51:44;21.57;;;10.77;;
19780;SDS011;10050;55.492;13.506;2023-01-04T06:54:11;22.23;;;10.77;;
19780;SDS011;10050;55.492;13.506;2023-01-04T06:56:36;22.60;;;10.00;;
19780;SDS011;10050;55.492;13.506;2023-01-04T06:59:03;22.40;;;10.93;;
19780;SDS011;10050;55.492;13.506;2023-01-04T07:01:28;17.03;;;9.37;;
19780;SDS011;10050;55.492;13.506;2023-01-04T07:03:54;22.73;;;10.20;;
19780;SDS011;10050;55.492;13.506;2023-01-04T07:06:20;19.77;;;11.30;;
19780;SDS011;10050;55.492;13.506;2023-01-04T07:08:45;18.20;;;10.30;;
19780;SDS011;10050;55.492;13.506;2023-01-04T07:11:11;17.83;;;10.00;;
19780;SDS011;10050;55.492;13.506;2023-01-04T07:13:36;23.67;;;10.67;;
19780;SDS011;10050;55.492;13.506;2023-01-04T07:16:02;19.73;;;10.10;;
19780;SDS011;10050;55.492;13.506;2023-01-04T07:18:28;17.23;;;9.40;;
19780;SDS011;10050;55.492;13.506;2023-01-04T07:20:53;22.43;;;10.53;;
19780;SDS011;10050;55.492;13.506;2023-01-04T07:23:19;24.03;;;10.93;;
19780;SDS011;10050;55.492;13.506;2023-01-04T07:25:45;18.40;;;9.87;;
19780;SDS011;10050;55.492;13.506;2023-01-04T07:28:10;17.27;;;9.47;;
19780;SDS011;10050;55.492;13.506;2023-01-04T07:30:36;14.93;;;9.47;;
19780;SDS011;10050;55.492;13.506;2023-01-04T07:33:02;18.73;;;9.60;;
19780;SDS011;10050;55.492;13.506;2023-01-04T07:35:27;22.60;;;10.40;;
19780;SDS011;10050;55.492;13.506;2023-01-04T07:37:53;22.77;;;10.53;;
19780;SDS011;10050;55.492;13.506;2023-01-04T07:40:19;22.40;;;10.70;;
19780;SDS011;10050;55.492;13.506;2023-01-04T07:42:52;17.80;;;9.53;;
19780;SDS011;10050;55.492;13.506;2023-01-04T07:45:20;21.17;;;9.80;;
19780;SDS011;10050;55.492;13.506;2023-01-04T07:47:46;18.77;;;9.53;;
19780;SDS011;10050;55.492;13.506;2023-01-04T07:50:12;15.60;;;8.87;;
19780;SDS011;10050;55.492;13.506;2023-01-04T07:52:37;21.00;;;9.30;;
19780;SDS011;10050;55.492;13.506;2023-01-04T07:55:03;16.80;;;8.47;;
19780;SDS011;10050;55.492;13.506;2023-01-04T07:57:29;14.97;;;7.73;;
19780;SDS011;10050;55.492;13.506;2023-01-04T07:59:54;16.77;;;8.13;;
19780;SDS011;10050;55.492;13.506;2023-01-04T08:02:20;17.87;;;7.77;;
19780;SDS011;10050;55.492;13.506;2023-01-04T08:04:45;13.77;;;8.20;;
19780;SDS011;10050;55.492;13.506;2023-01-04T08:07:11;25.33;;;9.30;;
19780;SDS011;10050;55.492;13.506;2023-01-04T08:09:37;17.30;;;8.13;;
19780;SDS011;10050;55.492;13.506;2023-01-04T08:12:02;15.57;;;7.87;;
19780;SDS011;10050;55.492;13.506;2023-01-04T08:14:28;17.10;;;8.07;;
19780;SDS011;10050;55.492;13.506;2023-01-04T08:16:54;14.87;;;7.57;;
19780;SDS011;10050;55.492;13.506;2023-01-04T08:19:19;17.70;;;7.90;;
19780;SDS011;10050;55.492;13.506;2023-01-04T08:21:46;15.73;;;6.73;;
19780;SDS011;10050;55.492;13.506;2023-01-04T08:24:13;14.77;;;7.00;;
19780;SDS011;10050;55.492;13.506;2023-01-04T08:26:40;16.47;;;8.03;;
19780;SDS011;10050;55.492;13.506;2023-01-04T08:29:06;12.70;;;7.30;;
19780;SDS011;10050;55.492;13.506;2023-01-04T08:31:32;14.70;;;7.80;;
19780;SDS011;10050;55.492;13.506;2023-01-04T08:34:00;15.77;;;7.20;;
19780;SDS011;10050;55.492;13.506;2023-01-04T08:36:28;10.73;;;6.83;;
19780;SDS011;10050;55.492;13.506;2023-01-04T08:38:57;14.53;;;7.07;;
19780;SDS011;10050;55.492;13.506;2023-01-04T08:41:24;15.17;;;6.83;;
19780;SDS011;10050;55.492;13.506;2023-01-04T08:43:50;16.97;;;6.97;;
19780;SDS011;10050;55.492;13.506;2023-01-04T08:46:16;16.27;;;6.90;;
19780;SDS011;10050;55.492;13.506;2023-01-04T08:48:41;11.93;;;6.67;;
19780;SDS011;10050;55.492;13.506;2023-01-04T08:51:09;13.87;;;6.80;;
19780;SDS011;10050;55.492;13.506;2023-01-04T08:53:37;18.90;;;6.80;;
19780;SDS011;10050;55.492;13.506;2023-01-04T08:56:03;10.53;;;6.03;;
19780;SDS011;10050;55.492;13.506;2023-01-04T08:58:29;11.70;;;5.67;;
19780;SDS011;10050;55.492;13.506;2023-01-04T09:01:00;13.60;;;6.60;;
19780;SDS011;10050;55.492;13.506;2023-01-04T09:03:33;14.90;;;5.83;;
19780;SDS011;10050;55.492;13.506;2023-01-04T09:06:07;12.97;;;6.50;;
19780;SDS011;10050;55.492;13.506;2023-01-04T09:08:35;15.10;;;6.63;;
19780;SDS011;10050;55.492;13.506;2023-01-04T09:11:06;10.90;;;7.10;;
19780;SDS011;10050;55.492;13.506;2023-01-04T09:13:36;19.13;;;6.20;;
19780;SDS011;10050;55.492;13.506;2023-01-04T09:16:06;14.97;;;6.73;;
19780;SDS011;10050;55.492;13.506;2023-01-04T09:18:33;15.43;;;6.43;;
19780;SDS011;10050;55.492;13.506;2023-01-04T09:21:03;10.57;;;5.90;;
19780;SDS011;10050;55.492;13.506;2023-01-04T09:23:34;8.97;;;5.87;;
19780;SDS011;10050;55.492;13.506;2023-01-04T09:26:07;8.10;;;5.50;;
19780;SDS011;10050;55.492;13.506;2023-01-04T09:28:34;8.93;;;5.37;;
19780;SDS011;10050;55.492;13.506;2023-01-04T09:31:07;9.70;;;5.07;;
19780;SDS011;10050;55.492;13.506;2023-01-04T09:33:35;15.17;;;5.27;;
19780;SDS011;10050;55.492;13.506;2023-01-04T09:36:04;8.40;;;5.03;;
19780;SDS011;10050;55.492;13.506;2023-01-04T09:38:32;9.20;;;4.90;;
19780;SDS011;10050;55.492;13.506;2023-01-04T09:41:00;8.03;;;4.33;;
19780;SDS011;10050;55.492;13.506;2023-01-04T09:43:29;10.03;;;4.47;;
19780;SDS011;10050;55.492;13.506;2023-01-04T09:46:03;9.27;;;4.60;;
19780;SDS011;10050;55.492;13.506;2023-01-04T09:48:32;6.50;;;4.10;;
19780;SDS011;10050;55.492;13.506;2023-01-04T09:51:00;6.67;;;4.67;;
19780;SDS011;10050;55.492;13.506;2023-01-04T09:53:30;11.27;;;4.20;;
19780;SDS011;10050;55.492;13.506;2023-01-04T09:56:10;7.80;;;4.67;;
19780;SDS011;10050;55.492;13.506;2023-01-04T09:58:50;6.20;;;3.67;;
19780;SDS011;10050;55.492;13.506;2023-01-04T10:01:19;7.23;;;3.50;;
19780;SDS011;10050;55.492;13.506;2023-01-04T10:04:03;9.53;;;3.90;;
19780;SDS011;10050;55.492;13.506;2023-01-04T10:06:39;7.83;;;3.63;;
19780;SDS011;10050;55.492;13.506;2023-01-04T10:09:08;4.33;;;3.13;;
19780;SDS011;10050;55.492;13.506;2023-01-04T10:17:24;5.97;;;3.37;;
19780;SDS011;10050;55.492;13.506;2023-01-04T10:22:51;5.37;;;3.07;;
19780;SDS011;10050;55.492;13.506;2023-01-04T10:25:26;8.37;;;3.20;;
19780;SDS011;10050;55.492;13.506;2023-01-04T10:33:26;8.23;;;3.10;;
19780;SDS011;10050;55.492;13.506;2023-01-04T10:36:12;4.43;;;3.13;;
19780;SDS011;10050;55.492;13.506;2023-01-04T10:38:45;3.10;;;2.50;;
19780;SDS011;10050;55.492;13.506;2023-01-04T10:41:21;4.00;;;2.10;;
19780;SDS011;10050;55.492;13.506;2023-01-04T10:44:37;3.47;;;2.20;;
19780;SDS011;10050;55.492;13.506;2023-01-04T10:47:04;3.07;;;2.27;;
19780;SDS011;10050;55.492;13.506;2023-01-04T10:49:51;6.27;;;2.50;;
19780;SDS011;10050;55.492;13.506;2023-01-04T10:54:53;4.93;;;2.63;;
19780;SDS011;10050;55.492;13.506;2023-01-04T11:00:40;4.43;;;2.20;;
19780;SDS011;10050;55.492;13.506;2023-01-04T11:03:25;2.33;;;2.03;;
19780;SDS011;10050;55.492;13.506;2023-01-04T11:06:00;3.10;;;2.13;;
19780;SDS011;10050;55.492;13.506;2023-01-04T11:08:42;3.57;;;1.67;;
19780;SDS011;10050;55.492;13.506;2023-01-04T11:11:19;6.23;;;1.97;;
19780;SDS011;10050;55.492;13.506;2023-01-04T11:13:51;5.30;;;2.30;;
19780;SDS011;10050;55.492;13.506;2023-01-04T11:16:17;2.20;;;2.00;;
19780;SDS011;10050;55.492;13.506;2023-01-04T11:18:43;3.53;;;1.70;;
19780;SDS011;10050;55.492;13.506;2023-01-04T11:21:13;4.23;;;1.93;;
19780;SDS011;10050;55.492;13.506;2023-01-04T11:23:41;2.70;;;1.70;;
19780;SDS011;10050;55.492;13.506;2023-01-04T11:26:20;4.07;;;1.90;;
19780;SDS011;10050;55.492;13.506;2023-01-04T11:28:56;2.20;;;1.60;;
19780;SDS011;10050;55.492;13.506;2023-01-04T11:34:00;3.07;;;1.50;;
19780;SDS011;10050;55.492;13.506;2023-01-04T11:36:38;4.60;;;1.60;;
19780;SDS011;10050;55.492;13.506;2023-01-04T11:39:18;6.03;;;2.20;;
19780;SDS011;10050;55.492;13.506;2023-01-04T11:41:55;2.83;;;1.83;;
19780;SDS011;10050;55.492;13.506;2023-01-04T11:44:28;5.00;;;2.30;;
19780;SDS011;10050;55.492;13.506;2023-01-04T11:47:07;4.10;;;1.73;;
19780;SDS011;10050;55.492;13.506;2023-01-04T11:49:43;6.97;;;1.83;;
19780;SDS011;10050;55.492;13.506;2023-01-04T11:57:46;5.83;;;2.00;;
19780;SDS011;10050;55.492;13.506;2023-01-04T12:00:13;3.13;;;1.87;;
19780;SDS011;10050;55.492;13.506;2023-01-04T12:02:40;5.23;;;1.77;;
19780;SDS011;10050;55.492;13.506;2023-01-04T12:05:15;4.53;;;1.83;;
19780;SDS011;10050;55.492;13.506;2023-01-04T12:07:43;7.30;;;2.07;;
19780;SDS011;10050;55.492;13.506;2023-01-04T12:10:15;8.53;;;2.13;;
19780;SDS011;10050;55.492;13.506;2023-01-04T12:12:47;6.17;;;2.00;;
19780;SDS011;10050;55.492;13.506;2023-01-04T12:15:16;6.27;;;2.10;;
19780;SDS011;10050;55.492;13.506;2023-01-04T12:18:01;3.67;;;2.00;;
19780;SDS011;10050;55.492;13.506;2023-01-04T12:20:31;6.23;;;1.93;;
19780;SDS011;10050;55.492;13.506;2023-01-04T12:22:57;2.57;;;1.63;;
19780;SDS011;10050;55.492;13.506;2023-01-04T12:27:54;3.97;;;1.90;;
19780;SDS011;10050;55.492;13.506;2023-01-04T12:30:37;2.27;;;1.97;;
19780;SDS011;10050;55.492;13.506;2023-01-04T12:41:20;9.07;;;2.30;;
19780;SDS011;10050;55.492;13.506;2023-01-04T12:43:46;4.70;;;2.47;;
19780;SDS011;10050;55.492;13.506;2023-01-04T12:54:53;9.00;;;2.13;;
19780;SDS011;10050;55.492;13.506;2023-01-04T13:02:37;5.57;;;2.23;;
19780;SDS011;10050;55.492;13.506;2023-01-04T13:21:10;4.30;;;2.67;;
19780;SDS011;10050;55.492;13.506;2023-01-04T13:23:58;4.13;;;2.77;;
19780;SDS011;10050;55.492;13.506;2023-01-04T13:26:27;5.43;;;2.47;;
19780;SDS011;10050;55.492;13.506;2023-01-04T13:29:06;7.13;;;2.80;;
19780;SDS011;10050;55.492;13.506;2023-01-04T13:34:48;5.47;;;2.77;;
19780;SDS011;10050;55.492;13.506;2023-01-04T13:37:30;4.77;;;2.53;;
19780;SDS011;10050;55.492;13.506;2023-01-04T13:42:41;6.57;;;2.83;;
19780;SDS011;10050;55.492;13.506;2023-01-04T13:48:15;6.10;;;3.13;;
19780;SDS011;10050;55.492;13.506;2023-01-04T13:50:45;4.13;;;2.87;;
19780;SDS011;10050;55.492;13.506;2023-01-04T13:53:24;7.77;;;3.13;;
19780;SDS011;10050;55.492;13.506;2023-01-04T13:55:55;4.63;;;3.10;;
19780;SDS011;10050;55.492;13.506;2023-01-04T13:58:35;6.17;;;3.23;;
19780;SDS011;10050;55.492;13.506;2023-01-04T14:01:11;5.37;;;3.40;;
19780;SDS011;10050;55.492;13.506;2023-01-04T14:03:50;8.77;;;3.57;;
19780;SDS011;10050;55.492;13.506;2023-01-04T14:06:39;7.27;;;3.97;;
19780;SDS011;10050;55.492;13.506;2023-01-04T14:12:35;4.63;;;3.37;;
19780;SDS011;10050;55.492;13.506;2023-01-04T14:24:52;8.63;;;3.57;;
19780;SDS011;10050;55.492;13.506;2023-01-04T14:27:35;6.30;;;3.20;;
19780;SDS011;10050;55.492;13.506;2023-01-04T14:32:59;8.13;;;3.70;;
19780;SDS011;10050;55.492;13.506;2023-01-04T14:35:32;7.23;;;3.97;;
19780;SDS011;10050;55.492;13.506;2023-01-04T14:38:01;7.37;;;3.87;;
19780;SDS011;10050;55.492;13.506;2023-01-04T14:40:29;7.40;;;3.93;;
19780;SDS011;10050;55.492;13.506;2023-01-04T14:42:55;7.97;;;4.30;;
19780;SDS011;10050;55.492;13.506;2023-01-04T14:45:22;13.40;;;4.47;;
19780;SDS011;10050;55.492;13.506;2023-01-04T14:47:47;6.70;;;4.63;;
19780;SDS011;10050;55.492;13.506;2023-01-04T14:50:14;16.20;;;4.87;;
19780;SDS011;10050;55.492;13.506;2023-01-04T14:52:41;11.67;;;4.50;;
19780;SDS011;10050;55.492;13.506;2023-01-04T14:55:18;6.07;;;3.73;;
19780;SDS011;10050;55.492;13.506;2023-01-04T14:57:44;8.80;;;3.83;;
19780;SDS011;10050;55.492;13.506;2023-01-04T15:00:16;8.07;;;4.23;;
19780;SDS011;10050;55.492;13.506;2023-01-04T15:02:42;6.27;;;4.30;;
19780;SDS011;10050;55.492;13.506;2023-01-04T15:05:09;10.00;;;4.13;;
19780;SDS011;10050;55.492;13.506;2023-01-04T15:07:36;7.97;;;4.10;;
19780;SDS011;10050;55.492;13.506;2023-01-04T15:10:20;8.30;;;4.03;;
19780;SDS011;10050;55.492;13.506;2023-01-04T15:12:47;9.60;;;4.17;;
19780;SDS011;10050;55.492;13.506;2023-01-04T15:15:13;8.40;;;4.33;;
19780;SDS011;10050;55.492;13.506;2023-01-04T15:17:39;8.67;;;4.93;;
19780;SDS011;10050;55.492;13.506;2023-01-04T15:20:05;9.13;;;4.40;;
19780;SDS011;10050;55.492;13.506;2023-01-04T15:22:32;9.30;;;5.00;;
19780;SDS011;10050;55.492;13.506;2023-01-04T15:24:58;7.63;;;5.07;;
19780;SDS011;10050;55.492;13.506;2023-01-04T15:27:24;9.97;;;4.43;;
19780;SDS011;10050;55.492;13.506;2023-01-04T15:29:49;8.07;;;4.30;;
19780;SDS011;10050;55.492;13.506;2023-01-04T15:32:15;7.50;;;4.20;;
19780;SDS011;10050;55.492;13.506;2023-01-04T15:34:41;4.97;;;2.73;;
19780;SDS011;10050;55.492;13.506;2023-01-04T15:37:06;5.57;;;2.70;;
19780;SDS011;10050;55.492;13.506;2023-01-04T15:39:32;3.60;;;2.37;;
19780;SDS011;10050;55.492;13.506;2023-01-04T15:41:58;6.67;;;2.50;;
19780;SDS011;10050;55.492;13.506;2023-01-04T15:44:42;3.73;;;2.20;;
19780;SDS011;10050;55.492;13.506;2023-01-04T15:47:08;3.90;;;2.23;;
19780;SDS011;10050;55.492;13.506;2023-01-04T15:49:33;4.30;;;2.30;;
19780;SDS011;10050;55.492;13.506;2023-01-04T15:51:59;5.00;;;2.67;;
19780;SDS011;10050;55.492;13.506;2023-01-04T15:54:25;5.10;;;2.73;;
19780;SDS011;10050;55.492;13.506;2023-01-04T15:56:52;7.33;;;2.40;;
19780;SDS011;10050;55.492;13.506;2023-01-04T15:59:17;3.57;;;2.43;;
19780;SDS011;10050;55.492;13.506;2023-01-04T16:01:43;5.80;;;2.60;;
19780;SDS011;10050;55.492;13.506;2023-01-04T16:04:10;7.73;;;2.90;;
19780;SDS011;10050;55.492;13.506;2023-01-04T16:06:36;7.40;;;3.03;;
19780;SDS011;10050;55.492;13.506;2023-01-04T16:09:02;9.90;;;3.77;;
19780;SDS011;10050;55.492;13.506;2023-01-04T16:11:28;9.83;;;4.07;;
19780;SDS011;10050;55.492;13.506;2023-01-04T16:13:54;23.20;;;4.60;;
19780;SDS011;10050;55.492;13.506;2023-01-04T16:16:21;14.03;;;4.80;;
19780;SDS011;10050;55.492;13.506;2023-01-04T16:18:51;12.27;;;4.50;;
19780;SDS011;10050;55.492;13.506;2023-01-04T16:21:25;19.83;;;6.03;;
19780;SDS011;10050;55.492;13.506;2023-01-04T16:23:52;17.87;;;5.33;;
19780;SDS011;10050;55.492;13.506;2023-01-04T16:26:20;14.97;;;5.20;;
19780;SDS011;10050;55.492;13.506;2023-01-04T16:28:49;19.97;;;5.17;;
19780;SDS011;10050;55.492;13.506;2023-01-04T16:31:19;22.80;;;6.40;;
19780;SDS011;10050;55.492;13.506;2023-01-04T16:33:45;29.20;;;10.30;;
19780;SDS011;10050;55.492;13.506;2023-01-04T16:36:12;22.57;;;7.00;;
19780;SDS011;10050;55.492;13.506;2023-01-04T16:38:40;21.90;;;5.80;;
19780;SDS011;10050;55.492;13.506;2023-01-04T16:41:08;20.30;;;5.53;;
19780;SDS011;10050;55.492;13.506;2023-01-04T16:43:46;20.40;;;5.00;;
19780;SDS011;10050;55.492;13.506;2023-01-04T16:46:15;35.87;;;7.53;;
19780;SDS011;10050;55.492;13.506;2023-01-04T16:51:18;33.77;;;8.73;;
19780;SDS011;10050;55.492;13.506;2023-01-04T16:53:44;26.50;;;6.20;;
19780;SDS011;10050;55.492;13.506;2023-01-04T16:56:11;21.60;;;5.03;;
19780;SDS011;10050;55.492;13.506;2023-01-04T16:58:38;27.07;;;5.83;;
19780;SDS011;10050;55.492;13.506;2023-01-04T17:01:08;33.17;;;5.93;;